October 1, 2022

Time Code Weather Temp. Visibility Ceiling Wind METAR/SPECI
03:00
I
25 °C 8 km 900 ft 230° 230° 8 kt METAR DXXX 010300Z 23008KT 8000 -DZRA BKN009 BKN020 25/23 Q1012 BECMG SCT009 BKN020
02:00
I
25 °C 10 km+ 900 ft 220° 220° 6 kt METAR DXXX 010200Z 22006KT 9999 BKN009 BKN020 25/23 Q1012 NOSIG
01:00
V
25 °C 10 km+ - 220° 220° 9 kt METAR DXXX 010100Z 22009KT 190V250 9999 SCT009 25/23 Q1012 NOSIG
00:00
M
25 °C 10 km+ 1,700 ft 210° 210° 10 kt METAR DXXX 010000Z 21010KT 9999 SCT009 BKN017 25/23 Q1012 NOSIG

September 30, 2022

Time Code Weather Temp. Visibility Ceiling Wind METAR/SPECI
23:00
M
25 °C 10 km+ 2,000 ft 220° 220° 12 kt METAR DXXX 302300Z 22012KT 9999 SCT010 BKN020 25/23 Q1012 NOSIG
22:00
M
26 °C 10 km+ 2,000 ft 210° 210° 8 kt METAR DXXX 302200Z 21008KT 9999 SCT010 BKN020 26/23 Q1012 NOSIG
21:00
M
26 °C 10 km+ 2,000 ft 200° 200° 8 kt METAR DXXX 302100Z 20008KT 9999 SCT010 BKN020 26/23 Q1012 NOSIG
20:00
M
26 °C 10 km+ 2,000 ft 210° 210° 9 kt METAR DXXX 302000Z 21009KT 180V250 9999 FEW010 BKN020 26/23 Q1011 NOSIG
19:00
M
26 °C 10 km+ 2,000 ft 220° 220° 11 kt METAR DXXX 301900Z 22011KT 9999 SCT010 BKN020 26/23 Q1011 NOSIG
17:00
V
26 °C 10 km+ - 220° 220° 10 kt METAR DXXX 301700Z 22010KT 9999 FEW012 FEW020CB SCT040 26/23 Q1011 NOSIG
16:00
V
27 °C 10 km+ - 220° 220° 12 kt METAR DXXX 301600Z 22012KT 9999 FEW013 FEW020CB 27/23 Q1010 NOSIG
15:00
V
27 °C 10 km+ - 210° 210° 15 kt METAR DXXX 301500Z 21015KT 9999 FEW015 FEW020CB 27/23 Q1009 NOSIG
14:00
V
28 °C 10 km+ - 210° 210° 14 kt METAR DXXX 301400Z 21014KT 9999 FEW015 FEW020CB 28/23 Q1010 NOSIG
13:00
V
28 °C 10 km+ - 220° 220° 13 kt METAR DXXX 301300Z 22013KT 9999 FEW015 28/23 Q1011 NOSIG
12:00
V
28 °C 10 km+ - 200° 200° 11 kt METAR DXXX 301200Z 20011KT 9999 SCT015 SCT030 28/23 Q1012 NOSIG
11:00
V
29 °C 10 km+ 4,000 ft 230° 230° 11 kt METAR DXXX 301100Z 23011KT 200V260 9999 SCT015 BKN040 29/24 Q1013 NOSIG
10:00
V
28 °C 10 km+ - 230° 230° 12 kt METAR DXXX 301000Z 23012KT 9999 SCT013 28/23 Q1014 NOSIG
09:00
V
27 °C 10 km+ - 250° 250° 11 kt METAR DXXX 300900Z 25011KT 9999 FEW013 27/23 Q1013 NOSIG
08:00
V
26 °C 10 km+ - 250° 250° 9 kt METAR DXXX 300800Z 25009KT 9999 FEW012 26/23 Q1013 NOSIG
07:00
V
24 °C 10 km+ - 260° 260° 5 kt METAR DXXX 300700Z 26005KT 9999 FEW010 24/23 Q1012 NOSIG
06:00
V
24 °C 10 km+ - 250° 250° 6 kt METAR DXXX 300600Z 25006KT 9999 FEW010 24/23 Q1012 NOSIG
05:00
V
24 °C 10 km+ - 240° 240° 6 kt METAR DXXX 300500Z 24006KT 9999 FEW010 24/23 Q1011 NOSIG
04:00
V
24 °C 10 km+ - 240° 240° 5 kt METAR DXXX 300400Z 24005KT 9999 FEW010 24/23 Q1011 NOSIG
03:00
V
24 °C 10 km+ - 250° 250° 5 kt METAR DXXX 300300Z 25005KT 9999 FEW010 24/23 Q1011 NOSIG
02:00
V
24 °C 10 km+ - 260° 260° 6 kt METAR DXXX 300200Z 26006KT 9999 FEW010 24/23 Q1011 NOSIG
01:00
V
25 °C 10 km+ - 270° 270° 5 kt METAR DXXX 300100Z 27005KT 9999 FEW010 25/23 Q1011 NOSIG
00:00
V
25 °C 10 km+ - 240° 240° 7 kt METAR DXXX 300000Z 24007KT 9999 FEW010 25/23 Q1012 NOSIG

September 29, 2022

Time Code Weather Temp. Visibility Ceiling Wind METAR/SPECI
23:00
V
25 °C 10 km+ - 220° 220° 6 kt METAR DXXX 292300Z 22006KT 9999 FEW010 25/23 Q1013 NOSIG
22:00
V
25 °C 10 km+ - 220° 220° 6 kt METAR DXXX 292200Z 22006KT 9999 FEW010 25/23 Q1013 NOSIG
21:00
V
25 °C 10 km+ - 220° 220° 5 kt METAR DXXX 292100Z 22005KT 9999 FEW010 25/23 Q1013 NOSIG
20:00
V
25 °C 10 km+ - 210° 210° 7 kt METAR DXXX 292000Z 21007KT 9999 FEW010 25/23 Q1012 NOSIG
19:00
V
24 °C 10 km+ - 350° 350° 2 kt METAR DXXX 291900Z 35002KT 9999 FEW010 24/22 Q1011 NOSIG
18:00
V
25 °C 10 km+ - 220° 220° 7 kt METAR DXXX 291800Z 22007KT 9999 FEW011 25/23 Q1011 NOSIG
17:00
V
26 °C 10 km+ - 200° 200° 8 kt METAR DXXX 291700Z 20008KT 170V230 9999 SCT012 26/23 Q1011 NOSIG
16:00
V
27 °C 10 km+ - 190° 190° 8 kt METAR DXXX 291600Z 19008KT 160V220 9999 FEW013 27/24 Q1011 NOSIG
15:00
V
26 °C 10 km+ - 200° 200° 8 kt METAR DXXX 291500Z 20008KT 9999 SCT012 FEW020CB SCT040 26/24 Q1011 NOSIG
14:00
M
26 °C 7 km 1,300 ft 180° 180° 8 kt METAR DXXX 291400Z 18008KT 7000 -RA BKN013 26/24 Q1012 TEMPO 4000 RA
13:00
M
28 °C 10 km+ 1,300 ft 230° 230° 8 kt METAR DXXX 291300Z 23008KT 200V270 9999 BKN013 BKN030 28/22 Q1013 NOSIG
11:00
M
26 °C 10 km+ 1,200 ft 230° 230° 9 kt METAR DXXX 291100Z 23009KT 190V250 9999 BKN012 BKN020 26/24 Q1014 NOSIG
10:00
M
27 °C 10 km+ 1,200 ft 200° 200° 11 kt METAR DXXX 291000Z 20011KT 170V230 9999 BKN012 BKN020 27/24 Q1015 NOSIG
09:00
M
26 °C 10 km+ 2,000 ft 270° 270° 6 kt METAR DXXX 290900Z 27006KT 9999 SCT011 BKN020 26/23 Q1014 NOSIG
08:00
V
25 °C 10 km+ - 260° 260° 5 kt METAR DXXX 290800Z 26005KT 9999 FEW010 25/23 Q1014 NOSIG
07:00
M
24 °C 6 km - Var 000° 0 kt METAR DXXX 290700Z 00000KT 6000 FEW009 24/23 Q1013 NOSIG
06:00
M
24 °C 6 km 4,000 ft Var 000° 0 kt METAR DXXX 290600Z 00000KT 6000 FEW009 BKN040 24/23 Q1012 NOSIG
05:00
M
24 °C 8 km 2,000 ft 010° 010° 1 kt METAR DXXX 290500Z 01001KT 8000 SCT009 BKN020 24/23 Q1012 NOSIG
04:00
V
24 °C 10 km+ - 050° 050° 2 kt METAR DXXX 290400Z 05002KT 9999 SCT009 24/23 Q1012 NOSIG
03:00
V
24 °C 10 km+ - Var 000° 0 kt METAR DXXX 290300Z 00000KT 9999 SCT009 24/23 Q1012 NOSIG
02:00
V
24 °C 10 km+ 3,000 ft 360° 360° 4 kt METAR DXXX 290200Z 36004KT 9999 SCT009 BKN030 24/23 Q1012 NOSIG
01:00
V
24 °C 10 km+ - 350° 350° 2 kt METAR DXXX 290100Z 35002KT 9999 FEW009 24/23 Q1013 NOSIG
00:00
V
24 °C 10 km+ - 290° 290° 4 kt METAR DXXX 290000Z 29004KT 9999 FEW009 24/23 Q1013 NOSIG
Older data

We and third parties follow your internet behavior on our website with cookies. If you continue, we assume you agree with our cookie policy. Learn more